Independence, Minnesota
Current Conditions -  °F | °C
As of 3:15 AM on Sunday 21 Dec 2014 (Local Time) from KCFE Reporting Station
Haze Haze  
Wind Chill: 24°   Ceiling: 700
Heat Index: 32°   Visibility: 5mi
Dew Point: 29°   Wind: 8mph
Humidity: 91%   Direction: 140°SE
Pressure: 29.97"   Gusts: NA
Location:  45.1045°N, 93.6647°W
Report Text: KCFE 210915Z AUTO 14007KT 5SM BR OVC007 00/M01 A2997 RMK AO2 T10021015
Loading
Personal Weather Stations






























Interactive Weather Map New forecast layout! Learn more

10-Day Weather Forecast

Advertisements
Track Severe Weather on mobile